Decoded Metar for KCLT (CHARLOTTE in NC, USA) (IATA:CLT) | Meteo·Mobile Aviation Weather
aviador You're here:

KCLT Decoded Metar

CHARLOTTE in NC, USA
Report Time2019-02-17 15:52:00
UTC Time2019-02-17 16:03:07
Flight Rules mvfr MVFR
Wind020° at 06 kt
W.Decomp.*RWY 05: 5.5 kt HW 2.3 kt LCW
RWY 36: 5.3 kt HW 2.7 kt RCW
W.Rank020° ranks 6
Current wind is below 020° avg. (7.1)
Visibility9999 m
Phenomena:N/A
Clouds:Overcast 021 Hf
Expected CloudBase > 1,600 ft AGL from Temp-Dew spread
Ceiling2,100 ft
Temp04°C (ISA -10)
Dew Point00°C (75% RH)
AAT-0.1°C
QNH1019 hPa
Density Alt-551 ft
Elevation722 ft
Report Wrong Elevation
Raw Report
KCLT 171552Z 02006KT 10SM OVC021 04/00 A3010 RMK AO2 RAE13 SLP194
P0000 T00390000=

Extra information for KCLT:More info

Metar Taf Metar & Taf Last 4 Metars F.Rules Stats Wind Profile Meteogram Temp Stats Airport Information Weather charts Add Link Nearby VenuesMetar ALERT Operation Metar Decoded Social comments

AIRNAV info for KCLT